Time;durP1;ratioP1;P1;durP2;ratioP2;P2;SDS_P1;SDS_P2;PMS_P1;PMS_P2;Temp;Humidity;BMP_temperature;BMP_pressure;BME280_temperature;BME280_humidity;BME280_pressure;Samples;Min_cycle;Max_cycle;Signal;HPM_P1;HPM_P2
2022/05/04 00:01:37;;;;;;;3.92;3.78;;;;;;;8.96;100.00;101329.56;6106678;23;20529;-72
2022/05/04 00:04:06;;;;;;;4.32;4.13;;;;;;;7.98;100.00;101180.31;6066379;23;20038;-72
2022/05/04 00:06:32;;;;;;;6.22;4.70;;;;;;;8.89;100.00;101334.16;6110453;23;20021;-72
2022/05/04 00:08:58;;;;;;;4.00;3.80;;;;;;;8.55;100.00;101277.75;6075345;23;20006;-72
2022/05/04 00:11:25;;;;;;;4.70;4.50;;;;;;;8.49;100.00;101279.75;6114546;23;20034;-72
2022/05/04 00:13:51;;;;;;;5.28;5.07;;;;;;;8.37;100.00;101260.91;6068654;23;20017;-72
2022/05/04 00:16:18;;;;;;;3.95;3.80;;;;;;;8.71;100.00;101321.72;6114610;23;20080;-73
2022/05/04 00:18:44;;;;;;;5.45;5.25;;;;;;;8.50;100.00;101299.75;6074332;23;20702;-72
2022/05/04 00:21:10;;;;;;;4.00;3.80;;;;;;;8.43;100.00;101306.97;6106390;23;20262;-72
2022/05/04 00:23:37;;;;;;;3.95;3.78;;;;;;;8.26;100.00;101296.16;6091879;23;20414;-72
2022/05/04 00:26:03;;;;;;;4.40;4.20;;;;;;;8.51;100.00;101332.88;6051407;23;20156;-72
2022/05/04 00:28:30;;;;;;;3.90;3.70;;;;;;;8.07;100.00;101283.69;6103539;23;20439;-72
2022/05/04 00:30:56;;;;;;;5.20;5.00;;;;;;;7.90;100.00;101255.50;6053179;23;20034;-73
2022/05/04 00:33:23;;;;;;;3.72;3.63;;;;;;;7.12;100.00;101136.06;6102596;23;20265;-72
2022/05/04 00:35:49;;;;;;;4.78;4.57;;;;;;;8.27;100.00;101330.13;6080733;23;20028;-72
2022/05/04 00:38:16;;;;;;;4.00;3.80;;;;;;;7.57;100.00;101219.06;6101652;23;20022;-72
2022/05/04 00:40:42;;;;;;;4.78;4.57;;;;;;;7.95;100.00;101305.00;6081597;23;20046;-74
2022/05/04 00:43:25;;;;;;;3.70;3.60;;;;;;;8.13;100.00;101322.72;6111503;23;20073;-73
2022/05/04 00:45:52;;;;;;;5.35;5.15;;;;;;;7.75;100.00;101264.66;6078514;23;20029;-72
2022/05/04 00:48:19;;;;;;;3.70;3.60;;;;;;;7.02;100.00;101145.06;6111421;23;20447;-73
2022/05/04 00:50:47;;;;;;;5.07;4.88;;;;;;;7.58;100.00;101239.06;6078762;23;20308;-72
2022/05/04 00:53:15;;;;;;;4.10;3.90;;;;;;;8.11;100.00;101326.28;6107540;23;20020;-72
2022/05/04 00:55:42;;;;;;;4.55;4.35;;;;;;;8.09;100.00;101326.31;6084211;23;20010;-73
2022/05/04 01:00:53;;;;;;;5.63;5.40;;;;;;;7.42;100.00;101235.25;6074707;23;20026;-72
2022/05/04 01:03:20;;;;;;;3.60;3.50;;;;;;;7.92;100.00;101319.03;6112669;23;20021;-74
2022/05/04 01:05:47;;;;;;;5.25;5.05;;;;;;;7.64;100.00;101271.13;6052973;23;20007;-74
2022/05/04 01:08:13;;;;;;;4.07;3.88;;;;;;;7.34;100.00;101226.78;6112504;23;20205;-73
2022/05/04 01:10:40;;;;;;;4.40;4.20;;;;;;;7.12;100.00;101184.81;6077961;23;20089;-72
2022/05/04 01:13:06;;;;;;;4.15;3.95;;;;;;;7.41;100.00;101238.72;6100186;23;20022;-73
2022/05/04 01:15:33;;;;;;;4.00;3.80;;;;;;;7.84;100.00;101330.59;6079144;23;20025;-72
2022/05/04 01:17:59;;;;;;;3.60;3.50;;;;;;;6.91;100.00;101168.00;6103394;23;20139;-72
2022/05/04 01:20:26;;;;;;;4.00;3.80;;;;;;;7.68;100.00;101314.56;6078496;23;20386;-73
2022/05/04 01:22:54;;;;;;;5.95;5.65;;;;;;;7.75;100.00;101323.91;6054266;23;20028;-72
2022/05/04 01:25:21;;;;;;;3.97;3.78;;;;;;;7.63;100.00;101306.00;6056629;23;20603;-72
2022/05/04 01:27:47;;;;;;;4.75;4.55;;;;;;;7.64;100.00;101307.69;6110269;23;20177;-74
2022/05/04 01:30:13;;;;;;;22.27;21.17;;;;;;;6.19;100.00;101072.72;6042321;23;20022;-72
2022/05/04 01:32:40;;;;;;;4.93;4.63;;;;;;;7.29;100.00;101244.31;5946095;23;20166;-72
2022/05/04 01:35:06;;;;;;;4.03;3.83;;;;;;;7.27;100.00;101249.59;6079166;23;20010;-73
2022/05/04 01:37:33;;;;;;;4.57;4.38;;;;;;;7.72;100.00;101319.63;6110823;23;20089;-72
2022/05/04 01:39:59;;;;;;;4.80;4.60;;;;;;;7.66;100.00;101319.84;6061946;23;20275;-72
2022/05/04 01:42:26;;;;;;;3.70;3.60;;;;;;;7.61;100.00;101303.44;6108513;23;20042;-73
2022/05/04 01:44:52;;;;;;;5.45;5.25;;;;;;;7.62;100.00;101338.22;6047921;23;20032;-73
2022/05/04 01:47:18;;;;;;;3.50;3.40;;;;;;;7.16;100.00;101251.69;6113839;23;20032;-74
2022/05/04 01:49:45;;;;;;;4.60;4.40;;;;;;;6.34;100.00;101107.91;6065158;23;20107;-73
2022/05/04 01:52:11;;;;;;;3.92;3.80;;;;;;;7.47;100.00;101292.53;6103973;23;20025;-73
2022/05/04 01:54:38;;;;;;;4.32;4.13;;;;;;;7.62;100.00;101325.16;6077159;23;20096;-72
2022/05/04 01:57:05;;;;;;;3.83;3.63;;;;;;;7.57;100.00;101327.94;6107970;23;20030;-74
2022/05/04 01:59:31;;;;;;;3.80;3.60;;;;;;;7.11;100.00;101262.22;6073899;23;20038;-74
2022/05/04 02:01:58;;;;;;;4.13;3.92;;;;;;;7.01;100.00;101245.13;6098547;23;20096;-74
2022/05/04 02:04:25;;;;;;;3.75;3.55;;;;;;;6.85;100.00;101233.41;6082536;23;20104;-73
2022/05/04 02:06:52;;;;;;;5.28;5.07;;;;;;;7.42;100.00;101318.78;6104291;23;20037;-73
2022/05/04 02:09:19;;;;;;;3.50;3.40;;;;;;;7.19;100.00;101288.97;6082569;23;20029;-73
2022/05/04 02:11:45;;;;;;;5.38;5.18;;;;;;;7.38;100.00;101320.63;6104261;23;20046;-73
2022/05/04 02:14:11;;;;;;;3.33;3.22;;;;;;;6.77;100.00;101226.66;6072478;23;20719;-73
2022/05/04 02:16:38;;;;;;;3.47;3.38;;;;;;;7.32;100.00;101330.41;6116485;23;20720;-73
2022/05/04 02:19:04;;;;;;;3.60;3.50;;;;;;;7.29;100.00;101328.72;6077098;23;20018;-73
2022/05/04 02:21:31;;;;;;;3.60;3.50;;;;;;;7.28;100.00;101334.00;6091815;23;20053;-73
2022/05/04 02:23:57;;;;;;;3.97;3.78;;;;;;;6.61;100.00;101224.50;6083366;23;20106;-73
2022/05/04 02:26:24;;;;;;;3.40;3.30;;;;;;;6.87;100.00;101265.53;6118087;23;20029;-73
2022/05/04 02:28:51;;;;;;;5.35;5.05;;;;;;;7.08;100.00;101308.47;6080058;23;20301;-73
2022/05/04 02:31:17;;;;;;;3.60;3.50;;;;;;;6.66;100.00;101235.69;6084073;23;20030;-73
2022/05/04 02:33:44;;;;;;;4.50;4.30;;;;;;;6.87;100.00;101275.97;6058790;23;20014;-72
2022/05/04 02:38:56;;;;;;;5.03;4.82;;;;;;;7.01;100.00;101309.53;6081403;23;20053;-73
2022/05/04 02:41:23;;;;;;;4.53;4.20;;;;;;;7.10;100.00;101325.78;6108797;23;20078;-73
2022/05/04 02:43:49;;;;;;;5.05;4.85;;;;;;;7.05;100.00;101322.44;6078021;23;20250;-73
2022/05/04 02:46:18;;;;;;;3.60;3.50;;;;;;;6.56;100.00;101248.13;6117433;23;20025;-73
2022/05/04 02:48:48;;;;;;;5.25;4.97;;;;;;;6.42;100.00;101238.06;6052166;23;20160;-73
2022/05/04 02:51:15;;;;;;;3.55;3.45;;;;;;;6.94;100.00;101322.75;6111368;23;20018;-74
2022/05/04 02:53:41;;;;;;;6.35;6.03;;;;;;;6.91;100.00;101325.41;6073003;23;20010;-73
2022/05/04 02:56:08;;;;;;;3.40;3.30;;;;;;;6.92;100.00;101315.84;6046231;23;20268;-74
2022/05/04 02:58:35;;;;;;;3.50;3.40;;;;;;;6.67;100.00;101303.44;6117663;23;20082;-73
2022/05/04 03:04:06;;;;;;;3.20;3.10;;;;;;;6.80;100.00;101319.66;6118036;23;20084;-73
2022/05/04 03:06:33;;;;;;;3.50;3.40;;;;;;;6.84;100.00;101320.44;6091130;23;20024;-72
2022/05/04 03:09:00;;;;;;;3.20;3.10;;;;;;;6.81;100.00;101312.66;6116653;23;20152;-72
2022/05/04 03:14:12;;;;;;;3.60;3.50;;;;;;;6.53;100.00;101276.88;6051809;23;20408;-73
2022/05/04 03:16:39;;;;;;;3.50;3.40;;;;;;;6.39;100.00;101262.47;6120595;23;20021;-73
2022/05/04 03:19:07;;;;;;;3.60;3.50;;;;;;;6.70;100.00;101311.19;6053377;23;20017;-72
2022/05/04 03:21:34;;;;;;;3.45;3.30;;;;;;;6.67;100.00;101313.88;6110034;23;20501;-73
2022/05/04 03:24:01;;;;;;;3.90;3.70;;;;;;;6.18;100.00;101226.50;6080476;23;20026;-72
2022/05/04 03:26:27;;;;;;;3.45;3.35;;;;;;;6.36;100.00;101277.31;6107044;23;20022;-73
2022/05/04 03:28:55;;;;;;;4.40;4.20;;;;;;;5.64;100.00;101151.41;6074215;23;20682;-73
2022/05/04 03:31:22;;;;;;;4.13;3.92;;;;;;;6.67;100.00;101319.09;6106044;23;20493;-73
2022/05/04 03:33:49;;;;;;;5.40;5.20;;;;;;;6.68;100.00;101313.00;6077841;23;20018;-73
2022/05/04 03:36:16;;;;;;;3.47;3.38;;;;;;;5.46;100.00;101106.72;6116964;23;20030;-73
2022/05/04 03:38:44;;;;;;;4.57;4.38;;;;;;;6.13;100.00;101247.47;6078023;23;20468;-72
2022/05/04 03:41:11;;;;;;;3.28;3.17;;;;;;;6.63;100.00;101293.13;6111187;23;20073;-73
2022/05/04 03:43:38;;;;;;;3.40;3.30;;;;;;;5.27;100.00;101082.00;6080678;23;20467;-72
2022/05/04 03:46:11;;;;;;;3.88;3.67;;;;;;;6.48;100.00;101270.94;6110707;23;20206;-73
2022/05/04 03:48:37;;;;;;;3.47;3.38;;;;;;;5.48;100.00;101117.09;6077735;23;20280;-72
2022/05/04 03:51:05;;;;;;;4.43;4.22;;;;;;;5.55;100.00;101098.69;6100744;23;20471;-72
2022/05/04 03:53:31;;;;;;;3.75;3.55;;;;;;;6.83;100.00;101313.47;6079190;23;20721;-73
2022/05/04 03:55:57;;;;;;;4.55;4.35;;;;;;;6.39;100.00;101248.53;6048047;23;20026;-72
2022/05/04 03:58:24;;;;;;;3.47;3.38;;;;;;;6.39;100.00;101253.75;6108927;23;20035;-73
2022/05/04 04:00:50;;;;;;;4.88;4.68;;;;;;;6.76;100.00;101315.41;6060479;23;20417;-72
2022/05/04 04:03:16;;;;;;;4.32;4.03;;;;;;;6.02;100.00;101202.59;6109967;23;20012;-72
2022/05/04 04:05:43;;;;;;;5.13;4.93;;;;;;;6.71;100.00;101314.66;6074281;23;20018;-74
2022/05/04 04:08:09;;;;;;;3.53;3.42;;;;;;;6.72;100.00;101317.22;6113244;23;20016;-72
2022/05/04 04:10:36;;;;;;;6.38;4.30;;;;;;;6.65;100.00;101314.81;6068332;23;20018;-71
2022/05/04 04:13:02;;;;;;;4.10;3.90;;;;;;;6.72;100.00;101319.84;6112523;23;20065;-72
2022/05/04 04:15:29;;;;;;;3.45;3.35;;;;;;;6.76;100.00;101324.06;6080341;23;20106;-71
2022/05/04 04:17:55;;;;;;;5.15;4.95;;;;;;;5.44;100.00;101110.25;6049349;23;20102;-72
2022/05/04 04:23:06;;;;;;;3.30;3.20;;;;;;;6.67;100.00;101295.63;6048152;23;20029;-72
2022/05/04 04:25:33;;;;;;;3.58;3.47;;;;;;;6.21;100.00;101202.13;6111624;23;20483;-72
2022/05/04 04:28:00;;;;;;;3.90;3.70;;;;;;;6.92;100.00;101321.06;6076964;23;20273;-71
2022/05/04 04:30:26;;;;;;;3.58;3.47;;;;;;;6.79;100.00;101291.84;6115927;23;20081;-72
2022/05/04 04:32:53;;;;;;;5.10;4.85;;;;;;;7.04;100.00;101320.75;6050865;23;20018;-72
2022/05/04 04:35:19;;;;;;;4.25;3.88;;;;;;;7.00;100.00;101329.53;6103170;23;20307;-72
2022/05/04 04:37:46;;;;;;;4.85;4.65;;;;;;;6.56;100.00;101280.25;6082949;23;20532;-72
2022/05/04 04:40:13;;;;;;;3.13;3.03;;;;;;;6.29;100.00;101210.59;6107920;23;20019;-72
2022/05/04 04:42:39;;;;;;;3.60;3.47;;;;;;;7.02;100.00;101325.13;6077606;23;20029;-72
2022/05/04 04:45:06;;;;;;;3.90;3.70;;;;;;;7.07;100.00;101338.06;6044876;23;20768;-74
2022/05/04 04:47:32;;;;;;;3.83;3.63;;;;;;;6.47;100.00;101237.91;6109123;23;20009;-72
2022/05/04 04:49:59;;;;;;;3.72;3.53;;;;;;;6.93;100.00;101287.09;6069219;23;20029;-72
2022/05/04 04:52:25;;;;;;;3.50;3.40;;;;;;;7.37;100.00;101331.97;6104930;23;20055;-72
2022/05/04 04:54:52;;;;;;;5.30;5.07;;;;;;;7.44;100.00;101337.00;6070154;23;20042;-75
2022/05/04 04:57:18;;;;;;;3.90;3.70;;;;;;;7.43;100.00;101325.72;6104985;23;20013;-72
2022/05/04 04:59:49;;;;;;;5.05;4.85;;;;;;;6.99;100.00;101246.94;6067889;23;20041;-73
2022/05/04 05:02:16;;;;;;;3.53;3.42;;;;;;;7.62;100.00;101333.88;6103321;23;20084;-72
2022/05/04 05:04:43;;;;;;;4.32;4.15;;;;;;;7.77;100.00;101340.41;6073633;23;20036;-72
2022/05/04 05:07:09;;;;;;;3.67;3.58;;;;;;;7.31;100.00;101247.75;6109091;23;20100;-73
2022/05/04 05:09:36;;;;;;;3.70;3.60;;;;;;;7.67;97.35;101251.00;6084505;23;20029;-73
2022/05/04 05:12:02;;;;;;;3.60;3.50;;;;;;;8.02;95.67;101308.28;6106742;23;20098;-73
2022/05/04 05:17:14;;;;;;;3.75;3.65;;;;;;;8.09;94.57;101325.47;6112059;23;20009;-72
2022/05/04 05:19:40;;;;;;;3.88;3.67;;;;;;;7.70;94.97;101269.19;6085747;23;20026;-72
2022/05/04 05:22:07;;;;;;;3.75;3.65;;;;;;;8.14;94.92;101300.91;6114769;23;20041;-72
2022/05/04 05:24:33;;;;;;;4.10;3.90;;;;;;;8.91;92.78;101352.44;6091104;23;20027;-73
2022/05/04 05:27:00;;;;;;;4.35;4.15;;;;;;;8.19;90.49;101235.38;6117363;23;20022;-73
2022/05/04 05:29:26;;;;;;;4.95;4.65;;;;;;;8.97;89.69;101355.69;6065234;23;20340;-73
2022/05/04 05:31:52;;;;;;;3.80;3.70;;;;;;;9.11;86.66;101296.75;6116335;23;20026;-73
2022/05/04 05:34:19;;;;;;;4.10;3.90;;;;;;;9.65;84.04;101313.94;6081224;23;20014;-74
2022/05/04 05:36:46;;;;;;;4.07;3.88;;;;;;;9.78;82.04;101281.09;6118528;23;20033;-73
2022/05/04 05:39:12;;;;;;;4.50;4.20;;;;;;;9.38;80.43;101205.81;6079517;23;20399;-73
2022/05/04 05:41:39;;;;;;;3.90;3.75;;;;;;;10.77;80.53;101351.41;6029938;23;20022;-73
2022/05/04 05:44:05;;;;;;;4.25;4.05;;;;;;;11.01;77.59;101303.16;6090988;23;20101;-74
2022/05/04 05:46:32;;;;;;;4.63;4.35;;;;;;;11.01;74.62;101343.41;6084282;23;20368;-72
2022/05/04 05:48:58;;;;;;;5.63;5.32;;;;;;;10.68;74.59;101301.91;6094018;23;20406;-72
2022/05/04 05:51:25;;;;;;;4.95;4.72;;;;;;;10.46;73.99;101280.97;6067572;23;20244;-73
2022/05/04 05:53:51;;;;;;;5.55;5.35;;;;;;;10.98;74.32;101348.78;6104312;23;20029;-73
2022/05/04 05:56:17;;;;;;;4.40;4.20;;;;;;;10.76;72.88;101296.34;6075949;23;20033;-73
2022/05/04 05:58:44;;;;;;;5.85;5.55;;;;;;;10.66;72.11;101284.53;6093393;23;20160;-75
2022/05/04 06:01:10;;;;;;;4.20;4.00;;;;;;;11.05;72.21;101354.63;6069117;23;20011;-73
2022/05/04 06:03:37;;;;;;;4.60;4.40;;;;;;;8.93;73.32;101096.72;6101476;23;20013;-73
2022/05/04 06:06:03;;;;;;;4.32;4.13;;;;;;;10.82;74.12;101350.34;6070176;23;20452;-73
2022/05/04 06:08:30;;;;;;;4.60;4.40;;;;;;;10.66;73.50;101366.75;6102438;23;20012;-74
2022/05/04 06:10:56;;;;;;;5.15;4.95;;;;;;;10.52;73.66;101356.84;6054610;23;20396;-74
2022/05/04 06:13:23;;;;;;;4.20;4.00;;;;;;;10.39;74.83;101363.50;6107091;23;20057;-73
2022/05/04 06:15:49;;;;;;;6.20;5.80;;;;;;;10.15;73.94;101279.63;6069588;23;20569;-73
2022/05/04 06:18:16;;;;;;;4.40;4.20;;;;;;;10.42;73.16;101299.53;6081186;23;20714;-73
2022/05/04 06:20:43;;;;;;;5.55;5.30;;;;;;;10.12;72.79;101237.78;6066988;23;20088;-72
2022/05/04 06:23:10;;;;;;;5.60;5.30;;;;;;;10.77;73.05;101356.66;6108138;23;20462;-73
2022/05/04 06:25:36;;;;;;;4.25;4.05;;;;;;;9.61;71.87;101168.22;6077804;23;20030;-72
2022/05/04 06:28:04;;;;;;;4.40;4.20;;;;;;;11.02;72.78;101354.75;6015931;23;20026;-73
2022/05/04 06:36:00;;;;;;;4.43;4.22;;;;;;;10.88;72.61;101348.31;6101012;23;20031;-73
2022/05/04 06:38:27;;;;;;;4.72;4.47;;;;;;;10.94;73.03;101368.22;6056528;23;20030;-74
2022/05/04 06:40:54;;;;;;;5.78;5.50;;;;;;;11.11;71.97;101363.09;6100567;23;20296;-73
2022/05/04 06:43:21;;;;;;;4.30;4.10;;;;;;;11.08;71.10;101334.31;6026063;23;20109;-73
2022/05/04 06:45:47;;;;;;;6.18;5.88;;;;;;;11.06;71.47;101372.94;6105107;23;20029;-73
2022/05/04 06:48:13;;;;;;;4.63;4.32;;;;;;;10.97;72.14;101355.81;6062687;23;20550;-71
2022/05/04 06:50:40;;;;;;;4.70;4.50;;;;;;;11.13;71.12;101342.84;6033506;23;20050;-76
2022/05/04 06:53:06;;;;;;;4.90;4.50;;;;;;;11.53;71.02;101345.47;6101579;23;20037;-73
2022/05/04 06:55:33;;;;;;;4.50;4.30;;;;;;;11.88;68.80;101382.41;6039986;23;20025;-74
2022/05/04 06:57:59;;;;;;;4.82;4.50;;;;;;;12.01;68.29;101380.97;6102143;23;20029;-72
2022/05/04 07:00:26;;;;;;;4.40;4.20;;;;;;;11.54;68.93;101384.81;6076754;23;20033;-73
2022/05/04 07:02:52;;;;;;;6.22;5.93;;;;;;;11.54;69.16;101365.56;6046143;23;20021;-73
2022/05/04 07:05:18;;;;;;;4.63;4.43;;;;;;;11.70;69.26;101368.34;6110567;23;20014;-73
2022/05/04 07:07:45;;;;;;;6.75;6.15;;;;;;;11.77;68.72;101388.19;6049168;23;20030;-72
2022/05/04 07:10:11;;;;;;;4.35;4.15;;;;;;;11.85;68.68;101378.16;6111473;23;20016;-73
2022/05/04 07:12:38;;;;;;;5.55;5.03;;;;;;;11.74;69.13;101383.06;6055889;23;20092;-73
2022/05/04 07:15:07;;;;;;;4.50;4.30;;;;;;;11.89;70.29;101382.41;6083041;23;20017;-72
2022/05/04 07:17:33;;;;;;;4.82;4.63;;;;;;;11.81;68.79;101307.34;6079352;23;20026;-72
2022/05/04 07:20:00;;;;;;;5.22;5.03;;;;;;;11.86;67.86;101331.69;6041770;23;20463;-72
2022/05/04 07:22:26;;;;;;;4.60;4.40;;;;;;;12.48;67.67;101388.34;6108393;23;20033;-74
2022/05/04 07:24:53;;;;;;;6.03;5.72;;;;;;;12.69;67.48;101383.81;6072338;23;20032;-72
2022/05/04 07:27:19;;;;;;;5.05;4.85;;;;;;;12.50;65.53;101306.66;6046360;23;20353;-72
2022/05/04 07:29:46;;;;;;;5.50;5.30;;;;;;;12.97;64.96;101338.47;6104764;23;20025;-72
2022/05/04 07:32:13;;;;;;;4.72;4.53;;;;;;;13.35;64.38;101384.88;6073990;23;20026;-73
2022/05/04 07:34:40;;;;;;;4.70;4.50;;;;;;;13.13;63.85;101362.22;6101203;23;20031;-73
2022/05/04 07:37:06;;;;;;;4.82;4.63;;;;;;;12.47;65.57;101331.38;6067311;23;20041;-73
2022/05/04 07:42:24;;;;;;;4.97;4.78;;;;;;;13.14;65.56;101382.38;6079003;23;20019;-73
2022/05/04 07:44:57;;;;;;;5.82;5.57;;;;;;;12.43;67.34;101392.13;6103429;23;20489;-72
2022/05/04 07:47:26;;;;;;;4.97;4.72;;;;;;;12.01;68.65;101391.50;6075465;23;20030;-73
2022/05/04 07:49:53;;;;;;;6.03;5.72;;;;;;;11.95;68.47;101318.13;6106730;23;20045;-73
2022/05/04 07:52:21;;;;;;;5.22;4.93;;;;;;;12.37;67.55;101367.81;6073228;23;20022;-73
2022/05/04 07:54:47;;;;;;;6.45;6.15;;;;;;;12.42;65.90;101393.06;6102608;23;20171;-72
2022/05/04 07:57:14;;;;;;;4.63;4.43;;;;;;;12.30;66.14;101326.91;6072686;23;20011;-73
2022/05/04 07:59:41;;;;;;;5.18;4.95;;;;;;;12.82;66.16;101397.19;6099591;23;20041;-71
2022/05/04 08:04:53;;;;;;;6.20;5.90;;;;;;;12.87;65.15;101358.31;6044015;23;20018;-73
2022/05/04 08:07:20;;;;;;;4.63;4.43;;;;;;;13.51;64.41;101406.84;6106429;23;20339;-73
2022/05/04 08:09:46;;;;;;;6.70;6.32;;;;;;;13.76;63.15;101406.38;6076277;23;20515;-73
2022/05/04 08:12:15;;;;;;;5.85;5.55;;;;;;;13.73;62.36;101339.72;6081952;23;20018;-74
2022/05/04 08:14:42;;;;;;;5.55;5.28;;;;;;;13.17;62.41;101350.59;6055885;23;20088;-72
2022/05/04 08:17:09;;;;;;;4.70;4.40;;;;;;;13.99;61.52;101379.66;6110635;23;20034;-74
2022/05/04 08:19:35;;;;;;;5.53;5.22;;;;;;;13.91;60.02;101341.38;6057287;23;20238;-73
2022/05/04 08:22:02;;;;;;;4.90;4.70;;;;;;;14.18;59.91;101401.44;6109769;23;20037;-73
2022/05/04 08:24:28;;;;;;;5.20;4.97;;;;;;;13.43;59.36;101307.97;6094447;23;20106;-71
2022/05/04 08:26:55;;;;;;;5.57;5.28;;;;;;;14.00;61.50;101397.22;6110040;23;20058;-73
2022/05/04 08:29:21;;;;;;;4.97;4.68;;;;;;;13.72;59.90;101332.75;6097481;23;20026;-73
2022/05/04 08:31:48;;;;;;;4.65;4.45;;;;;;;14.31;60.76;101396.31;6117821;23;20373;-72
2022/05/04 08:34:14;;;;;;;4.90;4.70;;;;;;;13.35;60.69;101311.06;6087391;23;20018;-74
2022/05/04 08:36:40;;;;;;;5.13;4.90;;;;;;;13.49;62.27;101377.06;6060529;23;20014;-73
2022/05/04 08:39:08;;;;;;;5.80;5.43;;;;;;;13.80;61.34;101396.50;6116800;23;20027;-72
2022/05/04 08:41:39;;;;;;;5.30;5.00;;;;;;;13.63;63.45;101401.84;6086760;23;20051;-74
2022/05/04 08:44:08;;;;;;;4.60;4.40;;;;;;;13.75;61.70;101394.13;6106856;23;20009;-73
2022/05/04 08:46:40;;;;;;;4.72;4.53;;;;;;;13.53;64.65;101377.72;6084241;23;20026;-74
2022/05/04 08:49:07;;;;;;;4.90;4.60;;;;;;;14.09;62.32;101396.69;6048693;23;20051;-74
2022/05/04 08:51:35;;;;;;;4.97;4.68;;;;;;;14.03;60.86;101346.88;6104514;23;20020;-73
2022/05/04 08:54:04;;;;;;;5.10;4.80;;;;;;;14.24;60.13;101402.91;6053898;23;20580;-74
2022/05/04 08:56:32;;;;;;;5.30;5.00;;;;;;;13.48;61.79;101399.09;6105715;23;20352;-71
2022/05/04 08:58:58;;;;;;;4.93;4.65;;;;;;;13.92;62.16;101406.38;6079670;23;20085;-74
2022/05/04 09:01:25;;;;;;;5.00;4.80;;;;;;;14.14;61.95;101402.56;6107508;23;20010;-72
2022/05/04 09:03:51;;;;;;;6.47;6.18;;;;;;;13.90;61.73;101352.84;6080938;23;20121;-75
2022/05/04 09:06:26;;;;;;;5.70;5.40;;;;;;;14.45;60.97;101393.78;6099340;23;20084;-74
2022/05/04 09:08:54;;;;;;;6.95;6.55;;;;;;;14.30;60.48;101326.00;6074532;23;20020;-74
2022/05/04 09:11:22;;;;;;;10.50;5.40;;;;;;;14.52;58.75;101357.28;6113216;23;20010;-74
2022/05/04 09:13:49;;;;;;;6.43;5.93;;;;;;;15.10;57.56;101390.00;6051301;23;20268;-73
2022/05/04 09:16:35;;;;;;;5.25;5.05;;;;;;;15.50;56.46;101393.72;6108939;23;20088;-74
2022/05/04 09:19:08;;;;;;;5.38;5.10;;;;;;;15.91;54.89;101387.63;6080620;23;20394;-74
2022/05/04 09:21:35;;;;;;;5.05;4.85;;;;;;;14.03;56.68;101202.59;6103569;23;20040;-73
2022/05/04 09:24:02;;;;;;;4.88;4.68;;;;;;;14.86;56.25;101369.38;6078009;23;20026;-73
2022/05/04 09:26:29;;;;;;;5.10;4.85;;;;;;;14.73;57.73;101382.47;6050234;23;20467;-73
2022/05/04 09:29:00;;;;;;;6.38;5.90;;;;;;;14.27;59.38;101321.75;6096300;23;20032;-74
2022/05/04 09:31:30;;;;;;;5.00;4.80;;;;;;;14.91;58.55;101353.25;6048599;23;20053;-73
2022/05/04 09:34:03;;;;;;;6.57;6.22;;;;;;;15.81;57.33;101386.53;6066709;23;20642;-72
2022/05/04 09:36:32;;;;;;;5.50;5.20;;;;;;;15.65;54.94;101380.47;6097174;23;20448;-73
2022/05/04 09:45:16;;;;;;;4.85;4.65;;;;;;;15.97;55.46;101308.78;5988190;23;20508;-74
2022/05/04 09:47:45;;;;;;;6.20;5.90;;;;;;;16.29;55.18;101371.06;6102875;23;20010;-73
2022/05/04 09:50:13;;;;;;;5.15;4.95;;;;;;;16.17;54.78;101368.38;6070462;23;20009;-73
2022/05/04 09:52:45;;;;;;;7.30;5.13;;;;;;;16.37;54.17;101348.53;6098121;23;20154;-74
2022/05/04 09:55:24;;;;;;;5.95;5.50;;;;;;;16.42;53.49;101354.41;6068514;23;20048;-74
2022/05/04 09:57:52;;;;;;;6.95;6.45;;;;;;;16.04;54.74;101365.69;6102256;23;20021;-73
2022/05/04 10:00:21;;;;;;;5.47;5.18;;;;;;;15.66;54.96;101334.56;6068025;23;20255;-73
2022/05/04 10:02:52;;;;;;;7.38;6.78;;;;;;;15.61;54.83;101328.69;6107614;23;20017;-73
2022/05/04 10:05:20;;;;;;;5.78;5.47;;;;;;;15.94;55.03;101365.44;6076457;23;20307;-74
2022/05/04 10:07:52;;;;;;;7.20;6.80;;;;;;;15.70;55.83;101338.72;6103672;23;20021;-76
2022/05/04 10:10:24;;;;;;;6.40;5.95;;;;;;;16.25;53.24;101371.38;6082342;23;20085;-73
2022/05/04 10:12:51;;;;;;;7.00;6.60;;;;;;;15.91;53.05;101355.03;6045016;23;20060;-73
2022/05/04 10:15:19;;;;;;;5.75;5.35;;;;;;;15.34;53.86;101218.41;6111630;23;20100;-75
2022/05/04 10:18:12;;;;;;;6.53;6.20;;;;;;;16.51;53.50;101374.97;6071974;23;20101;-74
2022/05/04 10:20:44;;;;;;;5.35;4.97;;;;;;;16.27;52.30;101357.09;6104225;23;20021;-75
2022/05/04 10:23:19;;;;;;;5.07;4.85;;;;;;;16.65;52.87;101359.00;6073424;23;20025;-74
2022/05/04 10:25:46;;;;;;;6.45;6.10;;;;;;;16.61;52.24;101308.97;6101706;23;20025;-75
2022/05/04 10:28:14;;;;;;;6.38;6.07;;;;;;;17.40;50.96;101368.94;6040069;23;20019;-76
2022/05/04 10:30:49;;;;;;;5.72;5.40;;;;;;;17.79;50.35;101363.53;6102462;23;20021;-74
2022/05/04 10:33:31;;;;;;;5.97;5.45;;;;;;;16.87;49.53;101355.75;6052813;23;20022;-76
2022/05/04 10:36:18;;;;;;;6.30;5.90;;;;;;;16.29;51.80;101309.31;6106011;23;20634;-74
2022/05/04 10:38:50;;;;;;;6.88;6.50;;;;;;;15.44;51.43;101148.09;6059998;23;20080;-75
2022/05/04 10:41:35;;;;;;;5.30;5.00;;;;;;;17.04;51.71;101349.31;6105402;23;20022;-76
2022/05/04 10:44:03;;;;;;;5.63;5.32;;;;;;;17.34;50.99;101366.72;6052184;23;20021;-75
2022/05/04 10:46:31;;;;;;;5.63;5.32;;;;;;;17.19;49.49;101354.50;6117033;23;20021;-73
2022/05/04 10:49:03;;;;;;;7.72;7.32;;;;;;;16.74;50.04;101259.47;6062340;23;20037;-76
2022/05/04 10:51:32;;;;;;;5.40;5.10;;;;;;;17.44;49.49;101353.63;6111181;23;20036;-75
2022/05/04 10:54:01;;;;;;;6.57;6.18;;;;;;;17.45;49.14;101336.75;6052001;23;20210;-75
2022/05/04 10:56:34;;;;;;;6.20;5.75;;;;;;;17.71;48.14;101361.44;6102119;23;20031;-76
2022/05/04 10:59:00;;;;;;;6.10;5.60;;;;;;;17.15;48.50;101364.47;6073107;23;20093;-76
2022/05/04 11:01:34;;;;;;;5.85;5.55;;;;;;;17.21;49.59;101339.34;6105858;23;20015;-76
2022/05/04 11:04:06;;;;;;;6.13;5.82;;;;;;;17.65;48.12;101361.88;6050134;23;20561;-76
2022/05/04 11:06:35;;;;;;;6.30;5.90;;;;;;;17.09;47.72;101302.09;6114905;23;20018;-75
2022/05/04 11:09:09;;;;;;;6.50;5.90;;;;;;;17.73;49.02;101352.41;6081699;23;20020;-76
2022/05/04 11:11:49;;;;;;;6.20;5.80;;;;;;;17.57;47.75;101292.56;6101889;23;20314;-75
2022/05/04 11:14:18;;;;;;;5.85;5.55;;;;;;;18.02;48.35;101343.31;6078940;23;20032;-75
2022/05/04 11:16:45;;;;;;;9.73;7.30;;;;;;;18.22;46.99;101349.81;6106862;23;20017;-73
2022/05/04 11:19:14;;;;;;;6.68;6.18;;;;;;;17.65;46.65;101291.06;6083875;23;20590;-75
2022/05/04 11:21:41;;;;;;;6.47;6.03;;;;;;;17.52;48.59;101341.53;6109281;23;20094;-76
2022/05/04 11:24:09;;;;;;;6.82;6.22;;;;;;;17.06;50.29;101350.06;6086369;23;20013;-74
2022/05/04 11:26:44;;;;;;;5.80;5.50;;;;;;;16.60;49.74;101292.22;6107153;23;20096;-77
2022/05/04 11:29:20;;;;;;;7.95;7.35;;;;;;;17.15;49.95;101337.97;6044521;23;20010;-75
2022/05/04 11:31:48;;;;;;;7.30;6.90;;;;;;;17.12;50.49;101343.50;6107386;23;20016;-75
2022/05/04 11:34:15;;;;;;;7.00;6.45;;;;;;;17.46;50.66;101330.47;6067437;23;20032;-76
2022/05/04 11:36:47;;;;;;;6.88;6.47;;;;;;;17.24;50.07;101339.97;6097086;23;20088;-74
2022/05/04 11:39:19;;;;;;;6.13;5.77;;;;;;;18.02;47.77;101322.94;6080722;23;20014;-75
2022/05/04 11:41:47;;;;;;;7.53;7.10;;;;;;;18.63;46.82;101321.94;6098392;23;20073;-75
2022/05/04 11:44:21;;;;;;;5.85;5.50;;;;;;;19.02;45.98;101314.53;6083690;23;20298;-74
2022/05/04 11:46:49;;;;;;;6.70;6.30;;;;;;;18.83;46.78;101315.13;6049152;23;20020;-74
2022/05/04 11:49:18;;;;;;;5.90;5.60;;;;;;;18.30;45.98;101231.38;6057852;23;20350;-75
2022/05/04 11:51:45;;;;;;;7.80;7.30;;;;;;;18.83;44.96;101291.19;6107386;23;20080;-74
2022/05/04 11:54:12;;;;;;;5.93;5.53;;;;;;;18.92;44.45;101286.00;6065620;23;20361;-74
2022/05/04 11:56:38;;;;;;;7.13;6.72;;;;;;;19.07;44.22;101305.22;6110739;23;20018;-75
2022/05/04 11:59:07;;;;;;;6.65;6.25;;;;;;;17.92;44.09;101237.78;6057919;23;20025;-73
2022/05/04 12:01:35;;;;;;;5.90;5.60;;;;;;;18.21;44.44;101212.63;6107890;23;20017;-74
2022/05/04 12:04:03;;;;;;;6.45;6.05;;;;;;;18.45;43.42;101327.69;6062536;23;20026;-75